Time;durP1;ratioP1;P1;durP2;ratioP2;P2;SDS_P1;SDS_P2;PMS_P1;PMS_P2;Temp;Humidity;BMP_temperature;BMP_pressure;BME280_temperature;BME280_humidity;BME280_pressure;Samples;Min_cycle;Max_cycle;Signal;HPM_P1;HPM_P2
2023/01/06 00:00:32;;;;;;;36.25;8.80;;;;;;;;;;4887164;29;20484;-91
2023/01/06 00:02:58;;;;;;;22.60;7.50;;;;;;;;;;4887377;29;20044;-91
2023/01/06 00:05:24;;;;;;;25.17;7.25;;;;;;;;;;4886958;29;20052;-91
2023/01/06 00:07:51;;;;;;;30.65;7.35;;;;;;;;;;4871434;29;20052;-92
2023/01/06 00:10:18;;;;;;;23.15;7.38;;;;;;;;;;4887166;29;20056;-91
2023/01/06 00:12:47;;;;;;;23.17;7.68;;;;;;;;;;4872133;29;20091;-91
2023/01/06 00:15:14;;;;;;;29.33;7.65;;;;;;;;;;4871585;29;20143;-91
2023/01/06 00:17:41;;;;;;;25.08;7.40;;;;;;;;;;4886031;29;20060;-91
2023/01/06 00:20:07;;;;;;;29.42;7.22;;;;;;;;;;4886717;29;20111;-91
2023/01/06 00:22:34;;;;;;;21.83;7.65;;;;;;;;;;4886591;29;20118;-91
2023/01/06 00:25:00;;;;;;;19.27;7.22;;;;;;;;;;4886752;29;20422;-91
2023/01/06 00:27:26;;;;;;;26.77;6.95;;;;;;;;;;4886852;29;20055;-92
2023/01/06 00:29:52;;;;;;;28.65;7.20;;;;;;;;;;4871355;29;20420;-92
2023/01/06 00:32:18;;;;;;;24.10;7.57;;;;;;;;;;4902429;29;20485;-91
2023/01/06 00:34:44;;;;;;;22.80;6.10;;;;;;;;;;4871148;29;20048;-91
2023/01/06 00:37:10;;;;;;;15.70;5.95;;;;;;;;;;4886981;29;20060;-91
2023/01/06 00:39:37;;;;;;;14.02;5.47;;;;;;;;;;4886430;29;20052;-91
2023/01/06 00:42:03;;;;;;;20.27;5.80;;;;;;;;;;4886847;29;20092;-91
2023/01/06 00:44:39;;;;;;;33.13;6.63;;;;;;;;;;4870923;29;20063;-91
2023/01/06 00:47:08;;;;;;;19.33;5.30;;;;;;;;;;4886541;29;20386;-92
2023/01/06 00:49:35;;;;;;;12.05;4.60;;;;;;;;;;4887299;29;20115;-91
2023/01/06 00:52:01;;;;;;;13.60;5.00;;;;;;;;;;4886196;29;20052;-91
2023/01/06 00:54:27;;;;;;;20.83;5.30;;;;;;;;;;4886212;29;20056;-92
2023/01/06 00:56:53;;;;;;;15.70;4.88;;;;;;;;;;4886098;29;20122;-92
2023/01/06 00:59:22;;;;;;;12.05;4.50;;;;;;;;;;4886247;29;20095;-91
2023/01/06 01:01:49;;;;;;;24.30;5.65;;;;;;;;;;4886175;29;20055;-91
2023/01/06 01:04:15;;;;;;;19.50;4.43;;;;;;;;;;4885842;29;20048;-91
2023/01/06 01:06:43;;;;;;;16.88;5.18;;;;;;;;;;4885767;29;20056;-91
2023/01/06 01:09:12;;;;;;;11.05;3.90;;;;;;;;;;4885694;29;20538;-91
2023/01/06 01:14:22;;;;;;;10.48;3.65;;;;;;;;;;4888113;29;20417;-91
2023/01/06 01:16:48;;;;;;;8.55;3.30;;;;;;;;;;4885874;29;20409;-90
2023/01/06 01:19:14;;;;;;;13.00;3.83;;;;;;;;;;4870499;29;20569;-91
2023/01/06 01:21:40;;;;;;;14.13;4.40;;;;;;;;;;4885863;29;20063;-91
2023/01/06 01:24:06;;;;;;;11.32;4.55;;;;;;;;;;4869874;29;20067;-91
2023/01/06 01:26:32;;;;;;;18.33;4.40;;;;;;;;;;4885448;29;20052;-91
2023/01/06 01:28:58;;;;;;;18.10;3.55;;;;;;;;;;4869405;29;20119;-91
2023/01/06 01:31:24;;;;;;;18.92;3.65;;;;;;;;;;4885481;29;20052;-90
2023/01/06 01:33:51;;;;;;;18.38;3.47;;;;;;;;;;4885709;29;20075;-91
2023/01/06 01:36:18;;;;;;;13.95;3.28;;;;;;;;;;4869865;29;20052;-91
2023/01/06 01:38:44;;;;;;;18.13;3.13;;;;;;;;;;4885639;29;20052;-91
2023/01/06 01:41:19;;;;;;;9.15;3.72;;;;;;;;;;4886314;29;20040;-90
2023/01/06 01:43:50;;;;;;;8.15;3.67;;;;;;;;;;4885968;29;20409;-90
2023/01/06 01:46:22;;;;;;;8.30;3.08;;;;;;;;;;4900768;29;20120;-90
2023/01/06 01:48:49;;;;;;;10.98;4.03;;;;;;;;;;4901104;29;20059;-90
2023/01/06 01:51:17;;;;;;;7.47;3.45;;;;;;;;;;4870111;29;20055;-91
2023/01/06 01:53:46;;;;;;;9.55;3.72;;;;;;;;;;4885282;29;20056;-91
2023/01/06 01:56:14;;;;;;;10.85;2.90;;;;;;;;;;4885743;29;20408;-91
2023/01/06 01:58:59;;;;;;;5.47;3.72;;;;;;;;;;4885276;29;20092;-91
2023/01/06 02:01:26;;;;;;;9.80;3.55;;;;;;;;;;4885527;29;20488;-91
2023/01/06 02:03:52;;;;;;;10.85;4.00;;;;;;;;;;4884992;29;20151;-91
2023/01/06 02:06:23;;;;;;;11.55;4.35;;;;;;;;;;4885244;29;20052;-92
2023/01/06 02:09:09;;;;;;;10.02;4.22;;;;;;;;;;4885847;29;20067;-91
2023/01/06 02:11:36;;;;;;;10.10;3.83;;;;;;;;;;4876112;29;20051;-91
2023/01/06 02:14:12;;;;;;;11.52;3.92;;;;;;;;;;4886187;29;20100;-91
2023/01/06 02:16:41;;;;;;;10.68;4.65;;;;;;;;;;4885687;29;20048;-91
2023/01/06 02:19:18;;;;;;;6.80;3.67;;;;;;;;;;4885609;29;20405;-91
2023/01/06 02:21:50;;;;;;;5.60;3.75;;;;;;;;;;4884975;29;20507;-91
2023/01/06 02:24:22;;;;;;;8.73;4.45;;;;;;;;;;4884587;29;20067;-90
2023/01/06 02:27:07;;;;;;;11.18;4.13;;;;;;;;;;4900372;29;20048;-91
2023/01/06 02:29:39;;;;;;;7.70;4.05;;;;;;;;;;4884529;29;20059;-91
2023/01/06 02:32:05;;;;;;;9.43;4.90;;;;;;;;;;4884567;29;20063;-90
2023/01/06 02:34:53;;;;;;;11.18;3.67;;;;;;;;;;4884610;29;20524;-91
2023/01/06 02:37:34;;;;;;;13.13;4.40;;;;;;;;;;4884473;29;20056;-90
2023/01/06 02:40:09;;;;;;;7.43;3.70;;;;;;;;;;4886577;29;20048;-91
2023/01/06 02:42:44;;;;;;;8.23;3.60;;;;;;;;;;4888301;29;20564;-91
2023/01/06 02:45:19;;;;;;;8.18;3.00;;;;;;;;;;4888837;29;20056;-91
2023/01/06 02:47:52;;;;;;;12.10;3.70;;;;;;;;;;4903977;29;20052;-91
2023/01/06 02:50:27;;;;;;;10.23;3.60;;;;;;;;;;4888219;29;20143;-90
2023/01/06 02:53:08;;;;;;;5.63;3.42;;;;;;;;;;4888347;29;20056;-90
2023/01/06 02:55:34;;;;;;;4.18;2.55;;;;;;;;;;4887993;29;20120;-90
2023/01/06 02:58:29;;;;;;;7.28;2.72;;;10.50;99.90;;;;;;4888270;29;20048;-91
2023/01/06 03:01:07;;;;;;;4.32;3.35;;;;;;;;;;4887903;29;20055;-91
2023/01/06 03:03:34;;;;;;;6.97;2.55;;;;;;;;;;4887962;29;20062;-90
2023/01/06 03:06:14;;;;;;;13.10;3.08;;;;;;;;;;4887959;29;20048;-91
2023/01/06 03:08:40;;;;;;;14.80;3.08;;;;;;;;;;4887990;29;20055;-91
2023/01/06 03:11:06;;;;;;;6.40;2.67;;;;;;;;;;4887775;29;20520;-91
2023/01/06 03:13:32;;;;;;;5.57;2.90;;;;;;;;;;4872162;29;20056;-91
2023/01/06 03:15:59;;;;;;;4.95;2.80;;;;;;;;;;4887725;29;20051;-90
2023/01/06 03:18:25;;;;;;;12.23;3.83;;;;;;;;;;4903449;29;20123;-89
2023/01/06 03:20:53;;;;;;;7.22;2.90;;;;;;;;;;4887607;29;20096;-92
2023/01/06 03:23:19;;;;;;;10.20;3.67;;;;;;;;;;4903449;29;20492;-91
2023/01/06 03:25:45;;;;;;;12.85;4.25;;;;;;;;;;4872168;29;20114;-91
2023/01/06 03:28:11;;;;;;;8.27;3.45;;;;;;;;;;4872132;29;20060;-91
2023/01/06 03:30:43;;;;;;;5.35;3.92;;;;;;;;;;4872771;29;20463;-91
2023/01/06 03:33:14;;;;;;;8.02;3.80;;;;;;;;;;4887574;29;20108;-91
2023/01/06 03:36:00;;;;;;;5.15;3.42;;;;;;;;;;4887402;29;20062;-90
2023/01/06 03:38:36;;;;;;;8.68;4.00;;;;;;;;;;4878145;29;20111;-92
2023/01/06 03:41:12;;;;;;;6.65;3.40;;;;;;;;;;4887884;29;20067;-92
2023/01/06 03:43:43;;;;;;;3.88;3.10;;;;;;;;;;4887455;29;20120;-91
2023/01/06 03:46:24;;;;;;;11.52;3.97;;;;;;;;;;4887599;29;20164;-91
2023/01/06 03:48:53;;;;;;;6.40;3.55;;;;;;;;;;4887593;29;20505;-92
2023/01/06 03:51:40;;;;;;;4.70;3.67;;;;;;;;;;4886852;29;20532;-91
2023/01/06 03:54:14;;;;;;;6.03;3.35;;;;;;;;;;4887746;29;20060;-92
2023/01/06 03:56:44;;;;;;;5.90;3.72;;;;;;;;;;4887836;29;20067;-92
2023/01/06 03:59:16;;;;;;;6.95;4.57;;;;;;;;;;4887399;29;20094;-92
2023/01/06 04:01:43;;;;;;;7.57;4.50;;;;;;;;;;4887853;29;20112;-92
2023/01/06 04:04:09;;;;;;;11.98;5.25;;;;;;;;;;4872240;29;20060;-91
2023/01/06 04:06:35;;;;;;;5.80;4.68;;;;;;;;;;4886901;29;20045;-91
2023/01/06 04:09:01;;;;;;;4.18;3.78;;;;;;;;;;4886706;29;20063;-90
2023/01/06 04:14:12;;;;;;;6.85;5.53;;;;;;;;;;4902328;29;20060;-90
2023/01/06 04:16:38;;;;;;;7.47;4.97;;;;;;;;;;4888079;29;20052;-91
2023/01/06 04:19:04;;;;;;;5.15;4.15;;;;;;;;;;4872490;29;20060;-90
2023/01/06 04:21:30;;;;;;;5.68;4.43;;;;;;;;;;4871086;29;20045;-90
2023/01/06 04:23:56;;;;;;;7.00;4.03;;;;;;;;;;4871346;29;20128;-90
2023/01/06 04:26:22;;;;;;;17.10;5.20;;;;;;;;;;4871063;29;20048;-91
2023/01/06 04:28:48;;;;;;;8.13;4.13;;;;;;;;;;4870940;29;20497;-91
2023/01/06 04:31:14;;;;;;;9.20;5.15;;;;;;;;;;4886863;29;20084;-91
2023/01/06 04:33:40;;;;;;;6.35;4.97;;;;;;;;;;4870987;29;20091;-90
2023/01/06 04:36:07;;;;;;;11.63;4.60;;;;;;;;;;4871007;29;20052;-91
2023/01/06 04:38:33;;;;;;;6.45;4.20;;;;;;;;;;4886554;29;20052;-92
2023/01/06 04:41:00;;;;;;;4.70;3.97;;;;;;;;;;4886389;29;20052;-91
2023/01/06 04:43:26;;;;;;;7.35;3.83;;;;;;;;;;4886401;29;20056;-91
2023/01/06 04:45:52;;;;;;;4.85;3.53;;;;;;;;;;4871116;29;20056;-91
2023/01/06 04:48:18;;;;;;;4.55;3.00;;;;;;;;;;4886172;29;20063;-90
2023/01/06 04:50:44;;;;;;;4.60;3.40;;;;;;;;;;4902058;29;20044;-91
2023/01/06 04:53:11;;;;;;;7.05;3.35;;;;;;;;;;4871116;29;20056;-90
2023/01/06 04:55:38;;;;;;;4.68;3.30;;;;;;;;;;4886425;29;20056;-91
2023/01/06 04:58:04;;;;;;;8.48;3.58;;;;;;;;;;4886467;29;20052;-91
2023/01/06 05:00:30;;;;;;;8.68;3.25;;;;;;;;;;4886348;29;20044;-91
2023/01/06 05:02:56;;;;;;;3.78;2.72;;;;;;;;;;4885912;29;20048;-90
2023/01/06 05:05:22;;;;;;;5.95;2.47;;;;;;;;;;4886014;29;20055;-91
2023/01/06 05:07:48;;;;;;;4.13;2.88;;;;;;;;;;4886467;29;20056;-92
2023/01/06 05:10:14;;;;;;;7.63;2.95;;;;;;;;;;4870396;29;20097;-91
2023/01/06 05:12:40;;;;;;;5.53;2.85;;;;;;;;;;4886029;29;20051;-90
2023/01/06 05:15:07;;;;;;;3.53;2.42;;;;;;;;;;4885787;29;20048;-90
2023/01/06 05:17:33;;;;;;;5.10;2.63;;;;;;;;;;4901190;29;20055;-90
2023/01/06 05:19:59;;;;;;;3.58;2.97;;;;;;;;;;4870131;29;20052;-92
2023/01/06 05:22:25;;;;;;;5.13;2.38;;;;;;;;;;4869950;29;20052;-90
2023/01/06 05:24:51;;;;;;;2.75;2.33;;;;;;;;;;4870242;29;20465;-90
2023/01/06 05:27:17;;;;;;;3.97;3.10;;;;;;;;;;4901339;29;20379;-90
2023/01/06 05:29:43;;;;;;;7.38;2.70;;;;;;;;;;4885061;29;20115;-90
2023/01/06 05:32:09;;;;;;;4.13;2.92;;;;;;;;;;4885651;29;20413;-92
2023/01/06 05:34:35;;;;;;;2.47;2.00;;;;;;;;;;4885862;29;20116;-91
2023/01/06 05:37:01;;;;;;;5.57;2.47;;;;;;;;;;4870655;29;20074;-92
2023/01/06 05:39:27;;;;;;;9.18;2.78;;;;;;;;;;4901442;29;20052;-91
2023/01/06 05:41:53;;;;;;;4.70;2.85;;;;;;;;;;4870255;29;20052;-91
2023/01/06 05:44:19;;;;;;;3.45;2.72;;;;;;;;;;4885490;29;20134;-91
2023/01/06 05:46:45;;;;;;;4.80;2.55;;;;;;;;;;4885648;29;20048;-92
2023/01/06 05:49:12;;;;;;;6.07;3.47;;;;;;;;;;4885483;29;20064;-92
2023/01/06 05:51:38;;;;;;;5.00;3.60;;;;;;;;;;4885360;29;20056;-92
2023/01/06 05:54:07;;;;;;;7.68;3.47;;;;;;;;;;4900983;29;20477;-92
2023/01/06 05:56:33;;;;;;;4.05;3.17;;;;;;;;;;4885614;29;20092;-92
2023/01/06 05:58:59;;;;;;;5.70;3.50;;;;;;;;;;4885168;29;20064;-91
2023/01/06 06:01:27;;;;;;;7.13;3.30;;;;;;;;;;4885527;29;20056;-92
2023/01/06 06:03:53;;;;;;;3.92;3.60;;;;;;;;;;4884940;29;20497;-91
2023/01/06 06:06:21;;;;;;;4.43;3.72;;;;;;;;;;4885065;29;20121;-91
2023/01/06 06:08:47;;;;;;;4.53;3.60;;;;;;;;;;4900736;29;20054;-92
2023/01/06 06:11:14;;;;;;;5.35;4.85;;;;;;;;;;4885404;29;20044;-91
2023/01/06 06:13:50;;;;;;;5.15;4.65;;;;;;;;;;4884660;29;20614;-91
2023/01/06 06:16:17;;;;;;;11.63;5.38;;;;;;;;;;4884982;29;20059;-92
2023/01/06 06:18:44;;;;;;;10.60;4.38;;;;;;;;;;4885099;29;20134;-92
2023/01/06 06:21:11;;;;;;;7.43;5.05;;;;;;;;;;4885090;29;20052;-92
2023/01/06 06:23:37;;;;;;;5.10;4.60;;;;;;;;;;4885800;29;20116;-92
2023/01/06 06:26:04;;;;;;;6.90;5.13;;;;;;;;;;4885265;29;20135;-91
2023/01/06 06:28:31;;;;;;;6.53;5.68;;;;;;;;;;4900770;29;20502;-91
2023/01/06 06:31:08;;;;;;;5.82;4.72;;;;;;;;;;4884529;29;20147;-91
2023/01/06 06:33:34;;;;;;;5.55;4.80;;;;;;;;;;4885480;29;20052;-91
2023/01/06 06:36:00;;;;;;;7.75;4.07;;;;;;;;;;4886098;29;20056;-91
2023/01/06 06:38:27;;;;;;;5.45;4.68;;;;;;;;;;4886662;29;20056;-91
2023/01/06 06:40:53;;;;;;;6.65;4.55;;;;;;;;;;4886989;29;20056;-91
2023/01/06 06:43:19;;;;;;;7.95;4.75;;;;;;;;;;4885209;29;20056;-92
2023/01/06 06:45:46;;;;;;;4.80;4.30;;;;;;;;;;4885131;29;20468;-91
2023/01/06 06:48:12;;;;;;;4.90;3.95;;;;;;;;;;4884993;29;20144;-91
2023/01/06 06:50:38;;;;;;;8.80;4.95;;;;;;;;;;4869032;29;20501;-91
2023/01/06 06:53:04;;;;;;;4.68;3.50;;;;;;;;;;4869417;29;20474;-91
2023/01/06 06:55:30;;;;;;;5.30;4.13;;;;;;;;;;4884422;29;20139;-91
2023/01/06 06:57:56;;;;;;;4.13;2.97;;;;;;;;;;4884963;29;20056;-92
2023/01/06 07:00:23;;;;;;;4.55;4.15;;;;;;;;;;4869667;29;20060;-93
2023/01/06 07:02:49;;;;;;;4.57;4.07;;;;;;;;;;4884808;29;20044;-92
2023/01/06 07:05:15;;;;;;;4.03;3.10;;;;;;;;;;4885017;29;20052;-92
2023/01/06 07:07:42;;;;;;;6.65;3.33;;;;;;;;;;4885624;29;20120;-92
2023/01/06 07:10:08;;;;;;;6.30;3.08;;;;;;;;;;4884871;29;20143;-92
2023/01/06 07:12:34;;;;;;;3.42;2.80;;;;;;;;;;4885066;29;20582;-93
2023/01/06 07:15:00;;;;;;;2.90;2.70;;;;;;;;;;4870073;29;20048;-92
2023/01/06 07:17:27;;;;;;;2.63;2.38;;;;;;;;;;4884742;29;20055;-94
2023/01/06 07:19:53;;;;;;;8.80;2.40;;;;;;;;;;4884884;29;20123;-92
2023/01/06 07:22:19;;;;;;;4.35;1.92;;;;;;;;;;4884507;29;20618;-91
2023/01/06 07:24:45;;;;;;;2.78;2.35;;;;;;;;;;4884590;29;20051;-92
2023/01/06 07:27:11;;;;;;;2.90;2.10;;;;;;;;;;4889340;29;20139;-91
2023/01/06 07:29:37;;;;;;;5.15;2.55;;;;;;;;;;4872712;29;20060;-92
2023/01/06 07:32:04;;;;;;;4.13;2.20;;;;;;;;;;4887926;29;20052;-93
2023/01/06 07:34:30;;;;;;;6.60;2.20;;;;;;;;;;4888016;29;20051;-91
2023/01/06 07:36:57;;;;;;;6.35;2.53;;;;;;;;;;4872375;29;20409;-92
2023/01/06 07:39:23;;;;;;;3.47;1.65;;;;;;;;;;4872554;29;20508;-93
2023/01/06 07:41:49;;;;;;;7.50;1.70;;;;;;;;;;4888701;29;20390;-92
2023/01/06 07:44:15;;;;;;;6.95;1.80;;;;;;;;;;4872268;29;20063;-93
2023/01/06 07:46:41;;;;;;;8.98;1.40;;;;;;;;;;4888704;29;20079;-92
2023/01/06 07:49:07;;;;;;;7.97;1.77;;;;;;;;;;4888407;29;20152;-92
2023/01/06 07:51:33;;;;;;;3.22;1.20;;;;;;;;;;4887849;29;20052;-92
2023/01/06 07:54:00;;;;;;;3.55;1.13;;;;;;;;;;4887671;29;20064;-92
2023/01/06 07:56:26;;;;;;;3.53;1.42;;;;;;;;;;4872277;29;20052;-92
2023/01/06 07:58:53;;;;;;;4.78;1.33;;;;;;;;;;4887350;29;20052;-92
2023/01/06 08:01:22;;;;;;;4.40;0.95;;;;;;;;;;4902915;29;20131;-92
2023/01/06 08:03:49;;;;;;;2.70;1.23;;;;;;;;;;4887324;29;20052;-92
2023/01/06 08:06:15;;;;;;;3.38;1.23;;;;;;;;;;4903257;29;20054;-92
2023/01/06 08:08:41;;;;;;;3.30;0.70;;;;;;;;;;4872001;29;20505;-93
2023/01/06 08:11:08;;;;;;;2.05;0.70;;;;;;;;;;4872637;29;20091;-93
2023/01/06 08:13:34;;;;;;;2.55;1.00;;;;;;;;;;4887315;29;20064;-92
2023/01/06 08:16:04;;;;;;;2.95;1.77;;;;;;;;;;4871428;29;20123;-91
2023/01/06 08:21:44;;;;;;;2.30;1.23;;;;;;;;;;5184905;23;20052;-93
2023/01/06 08:38:42;;;;;;;6.40;1.30;;;;;;;;;;4998464;23;20409;-95
2023/01/06 09:04:18;;;;;;;3.75;1.60;;;8.30;99.90;;;;;;1590307;23;20333;-90
2023/01/06 09:10:43;;;;;;;8.45;2.20;;;;;;;;;;5410270;23;20052;-92
2023/01/06 09:13:40;;;;;;;;;;;;;;;;;;;;;
2023/01/06 10:26:47;;;;;;;14.45;1.88;;;8.70;99.90;;;;;;4930590;23;20058;-93
2023/01/06 10:29:19;;;;;;;9.52;4.00;;;;;;;;;;4907609;23;20071;-92
2023/01/06 12:17:39;;;;;;;10.93;2.45;;;9.90;99.90;;;;;;4944946;23;20060;-92
2023/01/06 12:20:35;;;;;;;11.55;1.70;;;;;;;;;;4889364;29;20601;-92
2023/01/06 12:32:34;;;;;;;7.18;1.45;;;;;;;;;;4926164;29;20077;-93
2023/01/06 12:37:47;;;;;;;13.88;2.17;;;;;;;;;;4930535;23;20048;-93
2023/01/06 12:40:18;;;;;;;10.20;1.70;;;;;;;;;;4907008;29;20099;-93
2023/01/06 12:46:06;;;;;;;8.10;3.10;;;;;;;;;;5035322;23;20124;-92
2023/01/06 12:49:15;;;;;;;6.50;2.33;;;;;;;;;;5096766;23;20059;-93
2023/01/06 12:52:07;;;;;;;7.07;1.55;;;;;;;;;;5102753;23;20146;-93
2023/01/06 13:05:52;;;;;;;10.30;1.90;;;;;;;;;;5296672;23;20279;31
2023/01/06 13:08:41;;;;;;;8.85;2.40;;;;;;;;;;4987174;23;20274;-93
2023/01/06 15:33:45;;;;;;;12.85;2.92;;;;;;;;;;5736536;23;19986;-91
2023/01/06 17:21:10;;;;;;;8.35;2.65;;;;;;;;;;5007140;23;20051;-92
2023/01/06 17:23:41;;;;;;;11.18;2.55;;;;;;;;;;4899176;29;20052;-92
2023/01/06 17:26:15;;;;;;;17.23;3.20;;;;;;;;;;4899242;29;20052;-93
2023/01/06 17:28:42;;;;;;;17.65;3.03;;;;;;;;;;4902271;29;20511;-93
2023/01/06 17:31:15;;;;;;;6.05;2.67;;;;;;;;;;4903986;29;20104;-94
2023/01/06 17:33:42;;;;;;;8.10;2.53;;;;;;;;;;4889262;29;20063;-93
2023/01/06 17:36:16;;;;;;;6.45;2.50;;;;;;;;;;4886203;29;20056;-93
2023/01/06 17:38:44;;;;;;;8.65;2.58;;;;;;;;;;4886572;29;20147;-93
2023/01/06 17:41:10;;;;;;;5.13;3.40;;;;;;;;;;4886230;29;20116;-92
2023/01/06 17:43:37;;;;;;;10.38;2.97;;;;;;;;;;4870610;29;20098;-92
2023/01/06 17:46:13;;;;;;;15.43;3.97;;;;;;;;;;4870728;29;20571;-92
2023/01/06 17:48:39;;;;;;;9.40;2.92;;;;;;;;;;4886508;29;20063;-92
2023/01/06 17:51:05;;;;;;;8.45;3.03;;;;;;;;;;4885585;29;20066;-91
2023/01/06 17:56:21;;;;;;;12.27;3.88;;;;;;;;;;4901282;29;20047;-94
2023/01/06 17:58:47;;;;;;;16.45;4.03;;;;;;;;;;4886008;29;20138;-92
2023/01/06 18:01:15;;;;;;;14.32;3.90;;;;;;;;;;4885802;29;20059;-93
2023/01/06 18:03:42;;;;;;;6.72;3.50;;;;;;;;;;4886078;29;20496;-94
2023/01/06 18:06:17;;;;;;;12.70;3.80;;;;;;;;;;4887064;29;20139;-93
2023/01/06 18:08:44;;;;;;;14.43;5.00;;;;;;;;;;4886169;29;20120;-93
2023/01/06 18:11:10;;;;;;;13.82;5.15;;;;;;;;;;4869982;29;20048;-94
2023/01/06 18:13:41;;;;;;;12.02;3.83;;;;;;;;;;4885811;29;20056;-93
2023/01/06 18:16:27;;;;;;;10.90;3.58;;;;;;;;;;4886016;29;20056;-94
2023/01/06 18:18:56;;;;;;;12.27;4.32;;;;;;;;;;4885236;29;20048;-93
2023/01/06 18:21:26;;;;;;;11.77;4.00;;;;;;;;;;4885493;29;20078;-92
2023/01/06 18:23:52;;;;;;;11.82;5.22;;;;;;;;;;4885634;29;20056;-90
2023/01/06 18:26:29;;;;;;;11.73;3.65;;;;;;;;;;4900450;29;20055;-90
2023/01/06 18:29:15;;;;;;;11.50;3.65;;;;;;;;;;4885598;29;20052;-90
2023/01/06 18:31:41;;;;;;;8.07;3.03;;;;;;;;;;4900988;29;20059;-91
2023/01/06 18:34:18;;;;;;;9.77;2.85;;;;;;;;;;4869568;29;20458;-91
2023/01/06 18:36:44;;;;;;;11.15;3.28;;;;;;;;;;4885076;29;20059;-90
2023/01/06 18:39:10;;;;;;;6.53;2.95;;;;;;;;;;4891907;23;20060;-91
2023/01/06 18:44:27;;;;;;;9.73;3.08;;;;;;;;;;4915659;29;20119;-92
2023/01/06 18:47:15;;;;;;;9.27;3.78;;;;;;;;;;4938292;23;20051;-91
2023/01/06 18:49:59;;;;;;;11.40;4.28;;;;;;;;;;4939394;23;20517;-91
2023/01/06 18:55:34;;;;;;;10.27;3.58;;;;;;;;;;4931751;23;20176;-90
2023/01/06 22:23:24;;;;;;;19.02;8.25;;;;;;;;;;5455393;23;20572;-93
2023/01/06 22:25:50;;;;;;;16.92;8.40;;;;;;;;;;4886112;29;20052;-93
2023/01/06 22:28:16;;;;;;;12.38;7.72;;;;;;;;;;4885683;29;20497;-94
2023/01/06 22:30:42;;;;;;;15.40;8.15;;;;;;;;;;4885888;29;20139;-93
2023/01/06 22:33:08;;;;;;;21.80;8.88;;;;;;;;;;4886228;29;20445;-94
2023/01/06 22:35:45;;;;;;;15.55;9.13;;;;;;;;;;4885911;29;20052;-93
2023/01/06 22:38:12;;;;;;;20.58;9.50;;;;;;;;;;4886824;29;20056;-93
2023/01/06 22:40:38;;;;;;;21.02;10.48;;;;;;;;;;4886334;29;20052;-93
2023/01/06 22:43:07;;;;;;;24.27;10.82;;;;;;;;;;4870606;29;20225;-94
2023/01/06 22:45:36;;;;;;;18.23;10.13;;;;;;;;;;4885781;29;20151;-93
2023/01/06 22:48:02;;;;;;;20.90;10.45;;;;;;;;;;4871086;29;20048;-93
2023/01/06 22:50:28;;;;;;;23.55;10.80;;;;;;;;;;4870320;29;20060;-93
2023/01/06 22:52:55;;;;;;;17.23;10.55;;;;;;;;;;4885614;29;20108;-94
2023/01/06 22:55:29;;;;;;;18.45;10.93;;;;;;;;;;4871063;29;20068;-93
2023/01/06 22:57:55;;;;;;;16.27;10.27;;;;;;;;;;4874094;29;20082;-92
2023/01/06 23:00:21;;;;;;;17.58;11.75;;;;;;;;;;4904816;29;20087;-93
2023/01/06 23:02:47;;;;;;;20.33;11.77;;;;;;;;;;4889303;29;20048;-93
2023/01/06 23:05:17;;;;;;;20.77;12.00;;;;;;;;;;4888897;29;20524;-94
2023/01/06 23:07:43;;;;;;;22.40;11.90;;;;;;;;;;4888982;29;20048;-93
2023/01/06 23:10:10;;;;;;;23.63;13.02;;;;;;;;;;4888807;29;20059;-93
2023/01/06 23:12:37;;;;;;;22.33;13.23;;;;;;;;;;4889087;29;20545;-94
2023/01/06 23:15:03;;;;;;;18.65;12.20;;;;;;;;;;4888538;29;20059;-91
2023/01/06 23:17:29;;;;;;;26.92;13.73;;;;;;;;;;4888601;29;20055;-92
2023/01/06 23:19:55;;;;;;;22.45;13.90;;;;;;;;;;4888491;29;20052;-91
2023/01/06 23:22:21;;;;;;;26.88;13.85;;;;;;;;;;4888303;29;20426;-92
2023/01/06 23:24:47;;;;;;;21.00;12.95;;;;;;;;;;4872755;29;20509;-91
2023/01/06 23:27:13;;;;;;;25.35;15.43;;;;;;;;;;4872982;29;20048;-91
2023/01/06 23:29:39;;;;;;;25.52;16.02;;;;;;;;;;4888369;29;20098;-91
2023/01/06 23:32:06;;;;;;;27.73;16.27;;;;;;;;;;4904027;29;20107;-92
2023/01/06 23:34:32;;;;;;;22.77;16.05;;;;;;;;;;4872745;29;20052;-91
2023/01/06 23:36:58;;;;;;;26.92;16.58;;;;;;;;;;4904346;29;20146;-91
2023/01/06 23:39:24;;;;;;;29.25;16.08;;;;;;;;;;4872796;29;20048;-92
2023/01/06 23:41:50;;;;;;;31.23;16.88;;;;;;;;;;4888211;29;20091;-91
2023/01/06 23:44:17;;;;;;;33.17;16.95;;;;;;;;;;4887729;29;20056;-91
2023/01/06 23:46:44;;;;;;;28.77;17.73;;;;;;;;;;4888145;29;20048;-91
2023/01/06 23:49:11;;;;;;;28.55;17.13;;;;;;;;;;4887957;29;20103;-91
2023/01/06 23:51:38;;;;;;;28.90;15.73;;;;;;;;;;4888131;29;20052;-91
2023/01/06 23:54:05;;;;;;;30.90;17.83;;;;;;;;;;4887828;29;20063;-91
2023/01/06 23:56:32;;;;;;;30.65;15.90;;;;;;;;;;4887644;29;20048;-91
2023/01/06 23:58:59;;;;;;;31.10;17.55;;;;;;;;;;4887886;29;20082;-91
